sensor_id;sensor_type;location;lat;lon;timestamp;pressure;altitude;pressure_sealevel;temperature;humidity
70458;BME280;57919;56.194;95.716;2023-09-18T00:02:16;99639.31;;;7.48;81.54
70458;BME280;57919;56.194;95.716;2023-09-18T00:12:18;99642.22;;;7.44;82.23
70458;BME280;57919;56.194;95.716;2023-09-18T00:22:20;99658.72;;;7.91;82.18
70458;BME280;57919;56.194;95.716;2023-09-18T00:32:22;99649.31;;;8.22;82.32
70458;BME280;57919;56.194;95.716;2023-09-18T00:42:24;99644.47;;;8.76;81.99
70458;BME280;57919;56.194;95.716;2023-09-18T00:52:26;99649.75;;;9.60;80.03
70458;BME280;57919;56.194;95.716;2023-09-18T01:02:29;99659.13;;;9.79;78.68
70458;BME280;57919;56.194;95.716;2023-09-18T01:12:38;99663.28;;;10.40;77.92
70458;BME280;57919;56.194;95.716;2023-09-18T01:22:41;99667.03;;;10.93;76.86
70458;BME280;57919;56.194;95.716;2023-09-18T01:32:45;99674.13;;;11.70;75.15
70458;BME280;57919;56.194;95.716;2023-09-18T01:42:48;99683.34;;;12.90;72.65
70458;BME280;57919;56.194;95.716;2023-09-18T01:52:50;99689.63;;;12.91;72.21
70458;BME280;57919;56.194;95.716;2023-09-18T02:02:53;99687.34;;;12.86;72.33
70458;BME280;57919;56.194;95.716;2023-09-18T02:12:55;99685.09;;;15.46;66.70
70458;BME280;57919;56.194;95.716;2023-09-18T02:22:57;99682.19;;;17.87;62.17
70458;BME280;57919;56.194;95.716;2023-09-18T02:33:19;99690.88;;;18.39;59.33
70458;BME280;57919;56.194;95.716;2023-09-18T02:43:21;99687.50;;;18.93;57.52
70458;BME280;57919;56.194;95.716;2023-09-18T02:53:24;99682.97;;;17.63;60.09
70458;BME280;57919;56.194;95.716;2023-09-18T03:03:26;99681.50;;;19.28;55.83
70458;BME280;57919;56.194;95.716;2023-09-18T03:13:29;99673.41;;;19.89;55.39
70458;BME280;57919;56.194;95.716;2023-09-18T03:23:31;99656.31;;;20.54;53.02
70458;BME280;57919;56.194;95.716;2023-09-18T03:33:33;99662.22;;;21.46;51.61
70458;BME280;57919;56.194;95.716;2023-09-18T03:43:35;99645.91;;;21.66;50.19
70458;BME280;57919;56.194;95.716;2023-09-18T03:53:37;99645.88;;;20.93;52.10
70458;BME280;57919;56.194;95.716;2023-09-18T04:03:39;99641.75;;;20.16;53.13
70458;BME280;57919;56.194;95.716;2023-09-18T04:13:41;99631.25;;;21.08;52.11
70458;BME280;57919;56.194;95.716;2023-09-18T04:23:43;99628.31;;;23.00;48.79
70458;BME280;57919;56.194;95.716;2023-09-18T04:33:45;99616.38;;;23.47;48.24
70458;BME280;57919;56.194;95.716;2023-09-18T04:43:48;99613.91;;;23.72;46.68
70458;BME280;57919;56.194;95.716;2023-09-18T04:53:50;99614.13;;;23.77;46.75
70458;BME280;57919;56.194;95.716;2023-09-18T05:03:53;99599.03;;;23.93;45.79
70458;BME280;57919;56.194;95.716;2023-09-18T05:13:55;99590.50;;;24.54;44.93
70458;BME280;57919;56.194;95.716;2023-09-18T05:23:57;99583.28;;;24.46;44.85
70458;BME280;57919;56.194;95.716;2023-09-18T05:33:59;99580.09;;;24.49;44.95
70458;BME280;57919;56.194;95.716;2023-09-18T05:44:01;99562.28;;;24.90;44.56
70458;BME280;57919;56.194;95.716;2023-09-18T05:54:05;99551.44;;;25.64;43.19
70458;BME280;57919;56.194;95.716;2023-09-18T06:04:07;99548.84;;;24.93;44.09
70458;BME280;57919;56.194;95.716;2023-09-18T06:14:10;99534.63;;;24.83;43.94
70458;BME280;57919;56.194;95.716;2023-09-18T06:24:11;99525.47;;;24.83;44.25
70458;BME280;57919;56.194;95.716;2023-09-18T06:34:14;99516.75;;;23.95;44.70
70458;BME280;57919;56.194;95.716;2023-09-18T06:44:16;99507.38;;;23.23;46.48
70458;BME280;57919;56.194;95.716;2023-09-18T06:54:17;99498.41;;;23.01;46.25
70458;BME280;57919;56.194;95.716;2023-09-18T07:04:20;99487.97;;;22.90;47.17
70458;BME280;57919;56.194;95.716;2023-09-18T07:14:22;99479.91;;;22.88;46.16
70458;BME280;57919;56.194;95.716;2023-09-18T07:24:24;99473.53;;;22.81;47.23
70458;BME280;57919;56.194;95.716;2023-09-18T07:34:26;99466.75;;;22.36;47.11
70458;BME280;57919;56.194;95.716;2023-09-18T07:44:28;99465.66;;;22.31;46.68
70458;BME280;57919;56.194;95.716;2023-09-18T07:54:30;99460.44;;;22.49;46.37
70458;BME280;57919;56.194;95.716;2023-09-18T08:04:32;99455.28;;;22.33;46.30
70458;BME280;57919;56.194;95.716;2023-09-18T08:14:34;99451.94;;;22.44;45.80
70458;BME280;57919;56.194;95.716;2023-09-18T08:24:37;99442.16;;;23.02;43.91
70458;BME280;57919;56.194;95.716;2023-09-18T08:34:39;99450.38;;;22.82;44.05
70458;BME280;57919;56.194;95.716;2023-09-18T08:44:42;99441.53;;;23.13;43.25
70458;BME280;57919;56.194;95.716;2023-09-18T08:54:48;99429.84;;;23.38;42.26
70458;BME280;57919;56.194;95.716;2023-09-18T09:04:51;99442.38;;;23.40;42.19
70458;BME280;57919;56.194;95.716;2023-09-18T09:15:03;99429.59;;;22.86;43.24
70458;BME280;57919;56.194;95.716;2023-09-18T09:35:32;99426.53;;;22.07;44.02
70458;BME280;57919;56.194;95.716;2023-09-18T09:45:35;99424.91;;;21.85;44.09
70458;BME280;57919;56.194;95.716;2023-09-18T09:55:37;99416.22;;;21.53;44.85
70458;BME280;57919;56.194;95.716;2023-09-18T10:05:45;99411.97;;;21.23;45.00
70458;BME280;57919;56.194;95.716;2023-09-18T10:15:50;99413.41;;;20.98;45.73
70458;BME280;57919;56.194;95.716;2023-09-18T10:25:55;99412.28;;;20.71;46.22
70458;BME280;57919;56.194;95.716;2023-09-18T10:35:58;99399.56;;;20.48;46.81
70458;BME280;57919;56.194;95.716;2023-09-18T10:46:02;99407.94;;;20.25;47.32
70458;BME280;57919;56.194;95.716;2023-09-18T10:56:04;99408.81;;;20.11;48.16
70458;BME280;57919;56.194;95.716;2023-09-18T11:06:08;99413.84;;;19.93;49.35
70458;BME280;57919;56.194;95.716;2023-09-18T11:26:34;99402.97;;;19.18;51.95
70458;BME280;57919;56.194;95.716;2023-09-18T11:36:36;99416.44;;;18.67;53.26
70458;BME280;57919;56.194;95.716;2023-09-18T11:46:39;99408.34;;;18.12;55.23
70458;BME280;57919;56.194;95.716;2023-09-18T11:56:44;99416.16;;;17.92;56.09
70458;BME280;57919;56.194;95.716;2023-09-18T12:06:46;99416.63;;;17.32;57.15
70458;BME280;57919;56.194;95.716;2023-09-18T12:16:49;99435.13;;;16.89;58.17
70458;BME280;57919;56.194;95.716;2023-09-18T12:26:52;99439.63;;;16.40;59.37
70458;BME280;57919;56.194;95.716;2023-09-18T12:36:55;99438.25;;;15.86;60.22
70458;BME280;57919;56.194;95.716;2023-09-18T12:46:58;99431.47;;;15.38;61.47
70458;BME280;57919;56.194;95.716;2023-09-18T12:57:00;99444.72;;;15.07;62.29
70458;BME280;57919;56.194;95.716;2023-09-18T13:17:07;99457.97;;;14.84;63.54
70458;BME280;57919;56.194;95.716;2023-09-18T13:27:10;99464.25;;;14.49;64.15
70458;BME280;57919;56.194;95.716;2023-09-18T13:37:12;99454.94;;;14.24;64.67
70458;BME280;57919;56.194;95.716;2023-09-18T13:47:15;99470.31;;;13.88;65.30
70458;BME280;57919;56.194;95.716;2023-09-18T13:57:18;99469.72;;;13.57;65.92
70458;BME280;57919;56.194;95.716;2023-09-18T14:07:20;99466.22;;;13.28;66.64
70458;BME280;57919;56.194;95.716;2023-09-18T14:17:23;99468.97;;;12.99;67.28
70458;BME280;57919;56.194;95.716;2023-09-18T14:27:25;99469.13;;;12.78;67.48
70458;BME280;57919;56.194;95.716;2023-09-18T14:37:27;99467.41;;;12.67;67.94
70458;BME280;57919;56.194;95.716;2023-09-18T14:47:29;99471.38;;;12.44;68.86
70458;BME280;57919;56.194;95.716;2023-09-18T14:57:31;99481.09;;;12.37;69.37
70458;BME280;57919;56.194;95.716;2023-09-18T15:07:33;99496.75;;;12.23;69.69
70458;BME280;57919;56.194;95.716;2023-09-18T15:17:35;99494.97;;;11.93;69.96
70458;BME280;57919;56.194;95.716;2023-09-18T15:27:39;99494.25;;;11.71;70.37
70458;BME280;57919;56.194;95.716;2023-09-18T15:37:42;99497.91;;;11.60;70.62
70458;BME280;57919;56.194;95.716;2023-09-18T15:47:44;99480.66;;;11.30;70.87
70458;BME280;57919;56.194;95.716;2023-09-18T15:57:46;99497.56;;;11.23;71.52
70458;BME280;57919;56.194;95.716;2023-09-18T16:07:49;99502.31;;;11.10;71.74
70458;BME280;57919;56.194;95.716;2023-09-18T16:17:51;99497.22;;;10.95;72.25
70458;BME280;57919;56.194;95.716;2023-09-18T16:27:52;99485.13;;;10.79;74.20
70458;BME280;57919;56.194;95.716;2023-09-18T16:37:56;99484.06;;;10.70;73.83
70458;BME280;57919;56.194;95.716;2023-09-18T16:47:57;99484.09;;;10.59;74.15
70458;BME280;57919;56.194;95.716;2023-09-18T16:57:59;99485.97;;;10.58;74.13
70458;BME280;57919;56.194;95.716;2023-09-18T17:08:02;99473.50;;;10.67;73.68
70458;BME280;57919;56.194;95.716;2023-09-18T17:18:05;99460.75;;;10.58;74.52
70458;BME280;57919;56.194;95.716;2023-09-18T17:28:07;99467.34;;;10.33;74.62
70458;BME280;57919;56.194;95.716;2023-09-18T17:38:10;99459.53;;;10.08;75.00
70458;BME280;57919;56.194;95.716;2023-09-18T17:48:14;99447.41;;;9.91;75.72
70458;BME280;57919;56.194;95.716;2023-09-18T17:58:16;99460.00;;;10.13;75.59
70458;BME280;57919;56.194;95.716;2023-09-18T18:08:18;99468.13;;;10.24;75.61
70458;BME280;57919;56.194;95.716;2023-09-18T18:18:20;99457.06;;;10.04;75.75
70458;BME280;57919;56.194;95.716;2023-09-18T18:28:22;99454.53;;;9.92;75.93
70458;BME280;57919;56.194;95.716;2023-09-18T18:38:24;99456.38;;;9.91;76.44
70458;BME280;57919;56.194;95.716;2023-09-18T18:48:27;99453.16;;;9.97;76.56
70458;BME280;57919;56.194;95.716;2023-09-18T18:58:29;99452.56;;;9.83;76.79
70458;BME280;57919;56.194;95.716;2023-09-18T19:08:32;99443.63;;;9.71;76.72
70458;BME280;57919;56.194;95.716;2023-09-18T19:18:34;99447.69;;;9.54;76.64
70458;BME280;57919;56.194;95.716;2023-09-18T19:28:36;99450.38;;;9.32;76.60
70458;BME280;57919;56.194;95.716;2023-09-18T19:38:38;99442.13;;;9.11;76.71
70458;BME280;57919;56.194;95.716;2023-09-18T19:48:40;99444.34;;;9.06;76.79
70458;BME280;57919;56.194;95.716;2023-09-18T19:58:42;99443.84;;;9.01;76.75
70458;BME280;57919;56.194;95.716;2023-09-18T20:08:44;99446.75;;;8.87;76.73
70458;BME280;57919;56.194;95.716;2023-09-18T20:18:47;99437.28;;;8.81;76.83
70458;BME280;57919;56.194;95.716;2023-09-18T20:28:51;99440.00;;;8.81;76.89
70458;BME280;57919;56.194;95.716;2023-09-18T20:38:53;99445.19;;;8.60;77.31
70458;BME280;57919;56.194;95.716;2023-09-18T20:48:55;99450.78;;;8.46;77.89
70458;BME280;57919;56.194;95.716;2023-09-18T20:58:58;99455.19;;;8.23;78.42
70458;BME280;57919;56.194;95.716;2023-09-18T21:09:03;99456.22;;;8.09;79.00
70458;BME280;57919;56.194;95.716;2023-09-18T21:19:07;99457.81;;;8.12;79.17
70458;BME280;57919;56.194;95.716;2023-09-18T21:29:09;99461.38;;;8.13;78.94
70458;BME280;57919;56.194;95.716;2023-09-18T21:39:12;99459.69;;;7.99;78.76
70458;BME280;57919;56.194;95.716;2023-09-18T21:49:13;99466.53;;;7.79;79.83
70458;BME280;57919;56.194;95.716;2023-09-18T21:59:15;99462.16;;;7.65;80.04
70458;BME280;57919;56.194;95.716;2023-09-18T22:09:18;99466.91;;;7.62;80.71
70458;BME280;57919;56.194;95.716;2023-09-18T22:19:21;99470.53;;;7.73;81.21
70458;BME280;57919;56.194;95.716;2023-09-18T22:29:22;99458.91;;;7.73;81.11
70458;BME280;57919;56.194;95.716;2023-09-18T23:00:33;99468.66;;;7.37;80.93
70458;BME280;57919;56.194;95.716;2023-09-18T23:10:37;99479.97;;;7.30;80.97
70458;BME280;57919;56.194;95.716;2023-09-18T23:20:39;99483.94;;;7.11;82.12
70458;BME280;57919;56.194;95.716;2023-09-18T23:30:41;99493.19;;;7.07;81.83
70458;BME280;57919;56.194;95.716;2023-09-18T23:40:44;99498.47;;;7.09;81.26
70458;BME280;57919;56.194;95.716;2023-09-18T23:50:46;99496.66;;;7.09;81.83
